createdAt,value
2017-04-11T00:00:20.961Z,1006.65
2017-04-11T00:00:42.671Z,1006.68
2017-04-11T00:01:04.370Z,1006.82
2017-04-11T00:01:26.067Z,1006.90
2017-04-11T00:01:47.832Z,1007.24
2017-04-11T00:02:14.316Z,1007.36
2017-04-11T00:02:36.029Z,1007.00
2017-04-11T00:03:34.319Z,1007.00
2017-04-11T00:04:27.272Z,1006.90
2017-04-11T00:04:53.841Z,1007.33
2017-04-11T00:05:15.536Z,1007.20
2017-04-11T00:05:37.332Z,1006.89
2017-04-11T00:05:59.021Z,1007.20
2017-04-11T00:06:20.729Z,1006.79
2017-04-11T00:06:42.439Z,1006.91
2017-04-11T00:07:04.140Z,1006.83
2017-04-11T00:07:25.915Z,1006.94
2017-04-11T00:08:18.885Z,1006.94
2017-04-11T00:08:40.676Z,1006.89
2017-04-11T00:09:07.164Z,1006.98
2017-04-11T00:09:28.873Z,1007.07
2017-04-11T00:10:21.832Z,1007.00
2017-04-11T00:11:14.773Z,1007.20
2017-04-11T00:11:36.479Z,1007.27
2017-04-11T00:12:03.048Z,1007.36
2017-04-11T00:12:24.761Z,1007.36
2017-04-11T00:12:51.265Z,1006.82
2017-04-11T00:13:13.050Z,1007.10
2017-04-11T00:13:39.518Z,1006.99
2017-04-11T00:14:01.207Z,1007.03
2017-04-11T00:14:22.904Z,1006.97
2017-04-11T00:14:44.702Z,1006.92
2017-04-11T00:15:06.405Z,1006.85
2017-04-11T00:15:28.102Z,1007.44
2017-04-11T00:15:54.624Z,1007.11
2017-04-11T00:16:16.319Z,1007.08
2017-04-11T00:16:38.098Z,1007.06
2017-04-11T00:16:59.801Z,1007.21
2017-04-11T00:17:21.494Z,1007.10
2017-04-11T00:18:19.813Z,1006.91
2017-04-11T00:18:41.505Z,1007.02
2017-04-11T00:19:03.204Z,1006.90
2017-04-11T00:20:05.716Z,1007.07
2017-04-11T00:20:27.412Z,1007.18
2017-04-11T00:20:53.884Z,1007.12
2017-04-11T00:21:15.595Z,1007.19
2017-04-11T00:22:08.650Z,1006.92
2017-04-11T00:22:30.363Z,1007.28
2017-04-11T00:22:56.930Z,1007.05
2017-04-11T00:23:18.727Z,1007.05
2017-04-11T00:24:11.790Z,1007.21
2017-04-11T00:24:33.509Z,1007.03
2017-04-11T00:24:55.316Z,1007.24
2017-04-11T00:25:17.023Z,1007.59
2017-04-11T00:25:38.722Z,1007.39
2017-04-11T00:26:05.195Z,1007.36
2017-04-11T00:26:26.894Z,1007.33
2017-04-11T00:26:48.595Z,1007.14
2017-04-11T00:27:15.071Z,1007.38
2017-04-11T00:27:36.781Z,1007.27
2017-04-11T00:27:58.616Z,1007.04
2017-04-11T00:28:25.083Z,1006.88
2017-04-11T00:28:46.798Z,1007.04
2017-04-11T00:29:08.508Z,1007.04
2017-04-11T00:29:30.238Z,1007.08
2017-04-11T00:29:51.901Z,1007.23
2017-04-11T00:30:13.606Z,1007.11
2017-04-11T00:30:35.386Z,1007.25
2017-04-11T00:30:57.088Z,1007.09
2017-04-11T00:31:18.789Z,1007.35
2017-04-11T00:31:40.496Z,1007.25
2017-04-11T00:32:02.197Z,1007.19
2017-04-11T00:32:28.678Z,1007.23
2017-04-11T00:32:50.384Z,1007.19
2017-04-11T00:33:12.176Z,1007.34
2017-04-11T00:33:33.900Z,1007.22
2017-04-11T00:34:00.382Z,1007.20
2017-04-11T00:34:22.082Z,1007.10
2017-04-11T00:34:48.664Z,1007.21
2017-04-11T00:35:10.360Z,1007.30
2017-04-11T00:35:32.067Z,1007.34
2017-04-11T00:35:58.535Z,1007.29
2017-04-11T00:36:20.236Z,1007.15
2017-04-11T00:36:41.932Z,1007.45
2017-04-11T00:37:03.738Z,1007.45
2017-04-11T00:37:25.434Z,1007.16
2017-04-11T00:38:24.002Z,1007.38
2017-04-11T00:38:45.693Z,1007.51
2017-04-11T00:39:38.787Z,1007.35
2017-04-11T00:40:31.796Z,1007.36
2017-04-11T00:40:53.681Z,1007.13
2017-04-11T00:41:46.721Z,1007.32
2017-04-11T00:42:39.766Z,1007.60
2017-04-11T00:43:06.333Z,1007.52
2017-04-11T00:43:28.056Z,1007.62
2017-04-11T00:43:54.655Z,1007.20
2017-04-11T00:44:16.450Z,1007.20
2017-04-11T00:44:38.252Z,1007.19
2017-04-11T00:45:00.049Z,1007.61
2017-04-11T00:45:21.836Z,1007.38
2017-04-11T00:45:43.611Z,1007.51
2017-04-11T00:46:05.313Z,1007.26
2017-04-11T00:46:27.007Z,1007.18
2017-04-11T00:46:48.791Z,1007.15
2017-04-11T00:47:47.272Z,1007.27
2017-04-11T00:48:09.067Z,1007.31
2017-04-11T00:49:11.573Z,1007.41
2017-04-11T00:49:33.345Z,1007.35
2017-04-11T00:49:55.140Z,1007.16
2017-04-11T00:50:21.612Z,1007.23
2017-04-11T00:50:43.302Z,1007.37
2017-04-11T00:51:05.014Z,1007.34
2017-04-11T00:51:31.500Z,1007.25
2017-04-11T00:51:53.311Z,1007.35
2017-04-11T00:52:15.006Z,1007.32
2017-04-11T00:53:17.522Z,1007.65
2017-04-11T00:53:39.335Z,1007.61
2017-04-11T00:54:41.841Z,1007.12
2017-04-11T00:55:03.613Z,1007.49
2017-04-11T00:55:25.310Z,1007.54
2017-04-11T00:55:47.020Z,1007.25
2017-04-11T00:56:08.714Z,1007.12
2017-04-11T00:56:30.409Z,1007.14
2017-04-11T00:56:52.103Z,1007.18
2017-04-11T00:57:45.086Z,1007.25
2017-04-11T00:58:06.868Z,1007.80
2017-04-11T00:58:28.579Z,1007.66
2017-04-11T00:58:50.328Z,1007.42
2017-04-11T00:59:11.980Z,1007.21
2017-04-11T00:59:38.465Z,1007.21
2017-04-11T01:00:00.154Z,1007.35
2017-04-11T01:00:21.952Z,1007.38
2017-04-11T01:00:43.654Z,1007.26
2017-04-11T01:01:05.343Z,1007.32
2017-04-11T01:01:31.820Z,1007.50
2017-04-11T01:01:53.529Z,1007.38
2017-04-11T01:02:15.218Z,1007.32
2017-04-11T01:03:08.248Z,1007.44
2017-04-11T01:04:06.581Z,1007.51
2017-04-11T01:04:28.277Z,1007.66
2017-04-11T01:05:21.298Z,1007.27
2017-04-11T01:05:47.766Z,1007.24
2017-04-11T01:06:09.463Z,1007.27
2017-04-11T01:06:31.164Z,1007.25
2017-04-11T01:06:57.728Z,1007.46
2017-04-11T01:07:19.436Z,1007.64
2017-04-11T01:07:45.917Z,1007.56
2017-04-11T01:08:07.700Z,1007.31
2017-04-11T01:08:29.411Z,1007.55
2017-04-11T01:08:55.891Z,1007.93
2017-04-11T01:09:17.606Z,1007.87
2017-04-11T01:09:44.086Z,1007.83
2017-04-11T01:10:05.779Z,1007.40
2017-04-11T01:10:27.482Z,1007.62
2017-04-11T01:10:53.971Z,1007.25
2017-04-11T01:11:15.665Z,1007.15
2017-04-11T01:11:37.378Z,1007.05
2017-04-11T01:11:59.076Z,1007.09
2017-04-11T01:12:20.773Z,1007.34
2017-04-11T01:12:47.251Z,1007.52
2017-04-11T01:13:08.954Z,1007.32
2017-04-11T01:13:30.655Z,1007.36
2017-04-11T01:13:52.354Z,1007.70
2017-04-11T01:14:14.061Z,1007.47
2017-04-11T01:14:40.534Z,1007.25
2017-04-11T01:15:02.233Z,1007.55
2017-04-11T01:15:23.941Z,1007.68
2017-04-11T01:15:45.638Z,1007.78
2017-04-11T01:16:12.117Z,1007.24
2017-04-11T01:16:33.906Z,1007.42
2017-04-11T01:16:55.591Z,1007.34
2017-04-11T01:17:22.062Z,1007.30
2017-04-11T01:17:43.754Z,1007.44
2017-04-11T01:18:05.467Z,1007.51
2017-04-11T01:18:32.033Z,1007.20
2017-04-11T01:18:53.727Z,1007.36
2017-04-11T01:19:15.451Z,1007.49
2017-04-11T01:19:37.153Z,1007.47
2017-04-11T01:19:58.859Z,1007.67
2017-04-11T01:20:20.562Z,1007.86
2017-04-11T01:20:42.346Z,1007.30
2017-04-11T01:21:04.037Z,1007.32
2017-04-11T01:21:30.521Z,1007.29
2017-04-11T01:21:52.223Z,1007.25
2017-04-11T01:22:18.696Z,1007.21
2017-04-11T01:22:40.394Z,1007.52
2017-04-11T01:23:02.203Z,1007.50
2017-04-11T01:23:23.918Z,1007.38
2017-04-11T01:23:50.400Z,1007.39
2017-04-11T01:24:12.099Z,1007.61
2017-04-11T01:24:33.821Z,1007.48
2017-04-11T01:25:00.310Z,1007.61
2017-04-11T01:25:22.015Z,1007.76
2017-04-11T01:25:43.811Z,1007.75
2017-04-11T01:26:10.286Z,1007.87
2017-04-11T01:26:31.979Z,1007.80
2017-04-11T01:26:53.669Z,1007.46
2017-04-11T01:27:15.374Z,1007.51
2017-04-11T01:27:37.066Z,1007.87
2017-04-11T01:27:58.788Z,1007.98
2017-04-11T01:28:20.484Z,1007.73
2017-04-11T01:28:42.179Z,1007.43
2017-04-11T01:29:44.702Z,1007.48
2017-04-11T01:30:06.483Z,1007.60
2017-04-11T01:30:32.957Z,1007.47
2017-04-11T01:30:54.644Z,1007.93
2017-04-11T01:31:16.348Z,1007.42
2017-04-11T01:31:42.821Z,1007.32
2017-04-11T01:32:04.509Z,1007.48
2017-04-11T01:32:26.208Z,1007.43
2017-04-11T01:32:47.910Z,1007.44
2017-04-11T01:33:09.603Z,1007.49
2017-04-11T01:33:31.307Z,1007.49
2017-04-11T01:33:53.018Z,1007.57
2017-04-11T01:34:14.791Z,1007.63
2017-04-11T01:34:36.510Z,1007.93
2017-04-11T01:34:58.221Z,1007.84
2017-04-11T01:35:19.921Z,1007.47
2017-04-11T01:36:22.421Z,1007.54
2017-04-11T01:36:44.175Z,1007.63
2017-04-11T01:37:37.126Z,1007.74
2017-04-11T01:37:58.826Z,1007.79
2017-04-11T01:39:06.115Z,1007.48
2017-04-11T01:39:27.799Z,1007.83
2017-04-11T01:39:54.277Z,1007.41
2017-04-11T01:40:15.969Z,1007.93
2017-04-11T01:40:37.668Z,1008.14
2017-04-11T01:41:04.224Z,1008.09
2017-04-11T01:41:25.918Z,1007.85
2017-04-11T01:41:47.605Z,1007.48
2017-04-11T01:42:09.309Z,1007.56
2017-04-11T01:42:31.002Z,1007.54
2017-04-11T01:43:29.381Z,1007.40
2017-04-11T01:43:51.087Z,1007.58
2017-04-11T01:44:12.792Z,1007.58
2017-04-11T01:44:34.493Z,1007.55
2017-04-11T01:44:56.189Z,1007.61
2017-04-11T01:45:17.897Z,1007.57
2017-04-11T01:46:16.218Z,1007.63
2017-04-11T01:46:37.918Z,1007.57
2017-04-11T01:46:59.615Z,1007.80
2017-04-11T01:47:26.102Z,1007.51
2017-04-11T01:47:47.892Z,1007.63
2017-04-11T01:48:40.847Z,1007.58
2017-04-11T01:49:02.618Z,1007.53
2017-04-11T01:49:24.400Z,1007.57
2017-04-11T01:49:46.104Z,1007.75
2017-04-11T01:50:07.801Z,1007.82
2017-04-11T01:50:29.502Z,1007.62
2017-04-11T01:50:51.205Z,1007.56
2017-04-11T01:51:12.930Z,1007.56
2017-04-11T01:51:34.635Z,1007.34
2017-04-11T01:51:56.386Z,1008.06
2017-04-11T01:52:22.867Z,1008.01
2017-04-11T01:52:44.653Z,1008.09
2017-04-11T01:53:06.464Z,1008.14
2017-04-11T01:53:28.260Z,1007.92
2017-04-11T01:53:54.823Z,1007.77
2017-04-11T01:54:16.529Z,1007.51
2017-04-11T01:54:43.088Z,1007.95
2017-04-11T01:55:04.885Z,1007.48
2017-04-11T01:55:31.464Z,1007.43
2017-04-11T01:55:53.239Z,1007.55
2017-04-11T01:56:19.800Z,1007.39
2017-04-11T01:56:41.576Z,1007.55
2017-04-11T01:57:08.145Z,1008.03
2017-04-11T01:57:34.623Z,1007.44
2017-04-11T01:58:01.181Z,1007.61
2017-04-11T01:58:22.959Z,1007.96
2017-04-11T01:58:44.759Z,1007.61
2017-04-11T01:59:11.229Z,1007.86
2017-04-11T01:59:33.006Z,1007.60
2017-04-11T02:00:31.471Z,1007.50
2017-04-11T02:00:58.051Z,1007.97
2017-04-11T02:01:51.150Z,1007.94
2017-04-11T02:02:17.730Z,1007.58
2017-04-11T02:02:39.445Z,1007.73
2017-04-11T02:03:32.522Z,1007.79
2017-04-11T02:03:54.300Z,1007.55
2017-04-11T02:04:16.096Z,1007.78
2017-04-11T02:04:37.875Z,1007.64
2017-04-11T02:05:04.438Z,1007.75
2017-04-11T02:05:26.217Z,1007.75
2017-04-11T02:05:47.991Z,1007.79
2017-04-11T02:06:09.789Z,1007.64
2017-04-11T02:06:31.583Z,1007.76
2017-04-11T02:06:53.384Z,1007.79
2017-04-11T02:07:19.865Z,1007.90
2017-04-11T02:07:41.553Z,1008.17
2017-04-11T02:08:03.339Z,1007.63
2017-04-11T02:08:25.038Z,1007.71
2017-04-11T02:08:46.827Z,1008.00
2017-04-11T02:09:39.913Z,1007.70
2017-04-11T02:10:06.466Z,1007.56
2017-04-11T02:10:28.167Z,1007.76
2017-04-11T02:10:49.872Z,1007.91
2017-04-11T02:11:42.912Z,1007.60
2017-04-11T02:12:04.658Z,1007.79
2017-04-11T02:12:57.808Z,1007.55
2017-04-11T02:13:50.943Z,1008.19
2017-04-11T02:14:17.503Z,1007.57
2017-04-11T02:14:39.208Z,1007.44
2017-04-11T02:15:00.991Z,1007.61
2017-04-11T02:16:03.573Z,1007.73
2017-04-11T02:16:25.270Z,1007.93
2017-04-11T02:16:47.070Z,1007.76
2017-04-11T02:17:45.607Z,1007.81
2017-04-11T02:18:07.408Z,1008.01
2017-04-11T02:18:33.991Z,1007.84
2017-04-11T02:18:55.675Z,1007.66
2017-04-11T02:19:48.633Z,1007.92
2017-04-11T02:20:41.598Z,1007.72
2017-04-11T02:21:34.731Z,1007.83
2017-04-11T02:22:01.215Z,1007.64
2017-04-11T02:22:22.995Z,1007.79
2017-04-11T02:22:44.805Z,1008.08
2017-04-11T02:23:06.603Z,1007.78
2017-04-11T02:23:28.385Z,1007.69
2017-04-11T02:24:26.942Z,1007.90
2017-04-11T02:24:48.751Z,1007.82
2017-04-11T02:25:41.819Z,1007.59
2017-04-11T02:26:08.390Z,1007.66
2017-04-11T02:26:30.163Z,1007.70
2017-04-11T02:27:23.292Z,1008.01
2017-04-11T02:27:45.020Z,1007.83
2017-04-11T02:28:06.817Z,1008.09
2017-04-11T02:28:28.513Z,1007.74
2017-04-11T02:28:50.216Z,1008.19
2017-04-11T02:29:12.007Z,1008.32
2017-04-11T02:29:33.711Z,1007.88
2017-04-11T02:29:55.508Z,1007.58
2017-04-11T02:30:17.384Z,1007.53
2017-04-11T02:30:39.095Z,1007.61
2017-04-11T02:31:00.882Z,1007.60
2017-04-11T02:31:22.664Z,1007.57
2017-04-11T02:31:44.474Z,1007.86
2017-04-11T02:32:06.276Z,1007.61
2017-04-11T02:32:32.877Z,1007.64
2017-04-11T02:32:54.677Z,1007.71
2017-04-11T02:33:16.468Z,1007.83
2017-04-11T02:33:38.171Z,1007.82
2017-04-11T02:33:59.863Z,1007.82
2017-04-11T02:34:21.679Z,1007.71
2017-04-11T02:34:43.375Z,1008.04
2017-04-11T02:35:05.179Z,1007.85
2017-04-11T02:35:31.758Z,1007.46
2017-04-11T02:35:53.455Z,1007.70
2017-04-11T02:36:15.237Z,1007.60
2017-04-11T02:36:37.019Z,1007.67
2017-04-11T02:37:29.962Z,1007.58
2017-04-11T02:37:56.548Z,1007.59
2017-04-11T02:38:18.345Z,1007.72
2017-04-11T02:38:44.910Z,1007.60
2017-04-11T02:39:06.782Z,1008.00
2017-04-11T02:39:33.258Z,1007.72
2017-04-11T02:39:55.038Z,1007.69
2017-04-11T02:40:21.520Z,1007.64
2017-04-11T02:40:43.218Z,1007.71
2017-04-11T02:41:05.002Z,1007.96
2017-04-11T02:41:26.715Z,1007.73
2017-04-11T02:41:53.273Z,1007.65
2017-04-11T02:42:14.967Z,1007.68
2017-04-11T02:42:36.745Z,1007.58
2017-04-11T02:42:58.660Z,1007.86
2017-04-11T02:43:20.356Z,1007.65
2017-04-11T02:43:42.141Z,1007.76
2017-04-11T02:44:03.962Z,1007.59
2017-04-11T02:44:25.654Z,1007.77
2017-04-11T02:44:47.356Z,1007.93
2017-04-11T02:45:13.915Z,1007.65
2017-04-11T02:45:35.700Z,1007.66
2017-04-11T02:45:57.388Z,1007.82
2017-04-11T02:46:23.955Z,1007.59
2017-04-11T02:46:45.729Z,1007.98
2017-04-11T02:47:38.763Z,1007.96
2017-04-11T02:48:00.581Z,1007.69
2017-04-11T02:48:22.396Z,1007.79
2017-04-11T02:48:44.182Z,1007.80
2017-04-11T02:49:05.968Z,1007.73
2017-04-11T02:49:27.756Z,1007.74
2017-04-11T02:49:49.530Z,1007.84
2017-04-11T02:50:42.572Z,1007.85
2017-04-11T02:51:04.458Z,1007.65
2017-04-11T02:51:30.937Z,1008.22
2017-04-11T02:51:52.749Z,1007.95
2017-04-11T02:52:19.127Z,1007.76
2017-04-11T02:52:40.909Z,1007.63
2017-04-11T02:53:34.046Z,1007.70
2017-04-11T02:54:27.115Z,1007.99
2017-04-11T02:55:20.154Z,1007.82
2017-04-11T02:55:49.034Z,1007.77
2017-04-11T02:56:10.900Z,1007.68
2017-04-11T02:56:37.414Z,1007.80
2017-04-11T02:56:59.117Z,1007.75
2017-04-11T02:57:20.906Z,1007.88
2017-04-11T02:58:14.076Z,1008.10
2017-04-11T02:59:21.354Z,1007.86
2017-04-11T02:59:43.150Z,1007.82
2017-04-11T03:00:41.548Z,1007.80
2017-04-11T03:01:39.854Z,1007.86
2017-04-11T03:02:01.637Z,1008.05
2017-04-11T03:02:28.114Z,1007.89
2017-04-11T03:02:49.912Z,1007.70
2017-04-11T03:03:11.626Z,1007.67
2017-04-11T03:03:38.096Z,1008.11
2017-04-11T03:03:59.864Z,1008.13
2017-04-11T03:04:21.562Z,1007.61
2017-04-11T03:04:48.041Z,1007.63
2017-04-11T03:05:09.842Z,1007.88
2017-04-11T03:05:36.421Z,1008.47
2017-04-11T03:05:58.226Z,1007.68
2017-04-11T03:06:19.933Z,1007.61
2017-04-11T03:07:12.994Z,1007.70
2017-04-11T03:08:06.034Z,1008.09
2017-04-11T03:08:58.987Z,1007.72
2017-04-11T03:09:51.939Z,1007.92
2017-04-11T03:10:44.995Z,1007.74
2017-04-11T03:11:06.780Z,1007.74
2017-04-11T03:11:28.575Z,1007.64
2017-04-11T03:11:50.365Z,1007.76
2017-04-11T03:12:48.793Z,1007.52
2017-04-11T03:13:10.489Z,1007.65
2017-04-11T03:13:37.067Z,1008.11
2017-04-11T03:13:58.951Z,1007.67
2017-04-11T03:14:20.757Z,1007.58
2017-04-11T03:14:47.252Z,1007.74
2017-04-11T03:15:09.034Z,1007.77
2017-04-11T03:15:30.760Z,1007.77
2017-04-11T03:15:57.248Z,1007.72
2017-04-11T03:16:19.052Z,1007.79
2017-04-11T03:16:45.530Z,1007.97
2017-04-11T03:17:07.226Z,1007.70
2017-04-11T03:17:33.710Z,1007.69
2017-04-11T03:17:55.480Z,1007.73
2017-04-11T03:18:21.954Z,1007.83
2017-04-11T03:18:43.695Z,1007.82
2017-04-11T03:19:10.173Z,1007.73
2017-04-11T03:19:31.974Z,1007.66
2017-04-11T03:19:53.691Z,1008.25
2017-04-11T03:20:46.742Z,1007.85
2017-04-11T03:21:45.148Z,1007.71
2017-04-11T03:22:41.106Z,1007.99
2017-04-11T03:23:07.585Z,1007.79
2017-04-11T03:23:55.996Z,1007.91
2017-04-11T03:24:17.677Z,1007.67
2017-04-11T03:24:44.173Z,1007.93
2017-04-11T03:25:06.061Z,1007.82
2017-04-11T03:25:59.153Z,1007.96
2017-04-11T03:26:25.658Z,1007.90
2017-04-11T03:26:47.458Z,1008.07
2017-04-11T03:27:13.940Z,1007.94
2017-04-11T03:27:35.683Z,1007.76
2017-04-11T03:27:57.500Z,1007.92
2017-04-11T03:28:55.826Z,1007.97
2017-04-11T03:29:17.656Z,1007.62
2017-04-11T03:30:16.018Z,1008.03
2017-04-11T03:30:37.925Z,1007.72
2017-04-11T03:31:36.257Z,1007.82
2017-04-11T03:32:02.727Z,1007.99
2017-04-11T03:32:55.770Z,1008.02
2017-04-11T03:33:22.252Z,1007.65
2017-04-11T03:33:44.068Z,1007.97
2017-04-11T03:34:51.362Z,1008.36
2017-04-11T03:35:13.151Z,1007.75
2017-04-11T03:35:34.865Z,1007.77
2017-04-11T03:36:27.972Z,1007.88
2017-04-11T03:36:54.494Z,1007.81
2017-04-11T03:37:16.209Z,1008.24
2017-04-11T03:37:42.702Z,1007.92
2017-04-11T03:38:04.536Z,1007.99
2017-04-11T03:38:31.043Z,1007.70
2017-04-11T03:38:52.756Z,1007.89
2017-04-11T03:39:19.235Z,1007.85
2017-04-11T03:39:41.042Z,1007.84
2017-04-11T03:40:07.519Z,1007.96
2017-04-11T03:40:29.252Z,1008.03
2017-04-11T03:40:51.039Z,1007.98
2017-04-11T03:41:49.347Z,1007.95
2017-04-11T03:42:47.797Z,1007.87
2017-04-11T03:43:09.507Z,1008.04
2017-04-11T03:44:02.541Z,1007.75
2017-04-11T03:44:24.319Z,1007.82
2017-04-11T03:44:50.883Z,1007.89
2017-04-11T03:45:12.671Z,1007.86
2017-04-11T03:45:34.434Z,1007.77
2017-04-11T03:46:00.954Z,1007.94
2017-04-11T03:46:22.834Z,1008.02
2017-04-11T03:46:44.580Z,1008.34
2017-04-11T03:47:37.664Z,1007.81
2017-04-11T03:48:04.205Z,1008.16
2017-04-11T03:48:26.051Z,1007.69
2017-04-11T03:48:52.535Z,1007.72
2017-04-11T03:49:14.409Z,1007.79
2017-04-11T03:49:36.117Z,1008.01
2017-04-11T03:50:02.603Z,1007.87
2017-04-11T03:50:24.509Z,1007.73
2017-04-11T03:50:50.917Z,1007.85
2017-04-11T03:51:12.805Z,1007.89
2017-04-11T03:52:15.391Z,1007.91
2017-04-11T03:52:37.112Z,1008.08
2017-04-11T03:53:30.201Z,1008.16
2017-04-11T03:53:51.910Z,1007.96
2017-04-11T03:54:45.015Z,1008.22
2017-04-11T03:55:06.734Z,1007.79
2017-04-11T03:55:33.231Z,1007.93
2017-04-11T03:55:55.021Z,1008.04
2017-04-11T03:56:21.505Z,1008.06
2017-04-11T03:56:43.207Z,1008.17
2017-04-11T03:57:04.993Z,1008.16
2017-04-11T03:57:57.940Z,1008.11
2017-04-11T03:58:59.085Z,1008.13
2017-04-11T03:59:57.503Z,1008.08
2017-04-11T04:00:19.230Z,1008.14
2017-04-11T04:01:18.691Z,1008.18
2017-04-11T04:01:40.409Z,1008.12
2017-04-11T04:02:38.835Z,1008.50
2017-04-11T04:03:00.549Z,1007.95
2017-04-11T04:03:59.003Z,1008.07
2017-04-11T04:04:20.696Z,1008.10
2017-04-11T04:05:19.056Z,1008.17
2017-04-11T04:05:40.791Z,1008.18
2017-04-11T04:06:07.280Z,1008.11
2017-04-11T04:06:29.100Z,1008.15
2017-04-11T04:07:22.114Z,1008.34
2017-04-11T04:07:48.583Z,1008.12
2017-04-11T04:08:10.373Z,1008.07
2017-04-11T04:08:36.866Z,1008.19
2017-04-11T04:08:58.567Z,1008.13
2017-04-11T04:09:25.058Z,1008.13
2017-04-11T04:09:46.894Z,1008.24
2017-04-11T04:10:13.386Z,1008.37
2017-04-11T04:10:35.091Z,1008.38
2017-04-11T04:11:28.129Z,1008.16
2017-04-11T04:11:49.841Z,1008.27
2017-04-11T04:12:42.915Z,1008.54
2017-04-11T04:13:45.485Z,1008.20
2017-04-11T04:14:07.201Z,1008.23
2017-04-11T04:15:05.605Z,1008.16
2017-04-11T04:15:27.393Z,1008.20
2017-04-11T04:16:30.292Z,1008.37
2017-04-11T04:16:52.082Z,1008.40
2017-04-11T04:17:45.123Z,1008.10
2017-04-11T04:18:11.652Z,1008.66
2017-04-11T04:18:33.354Z,1008.32
2017-04-11T04:18:55.169Z,1008.11
2017-04-11T04:19:21.645Z,1008.42
2017-04-11T04:19:43.403Z,1008.46
2017-04-11T04:20:46.120Z,1008.11
2017-04-11T04:21:48.642Z,1008.31
2017-04-11T04:22:41.747Z,1008.78
2017-04-11T04:23:08.241Z,1008.39
2017-04-11T04:23:29.936Z,1008.20
2017-04-11T04:23:56.414Z,1008.71
2017-04-11T04:24:18.221Z,1008.36
2017-04-11T04:25:20.849Z,1008.17
2017-04-11T04:25:42.556Z,1008.35
2017-04-11T04:26:04.345Z,1008.40
2017-04-11T04:26:26.049Z,1008.27
2017-04-11T04:26:47.849Z,1008.66
2017-04-11T04:27:09.574Z,1008.54
2017-04-11T04:27:31.359Z,1008.44
2017-04-11T04:27:53.072Z,1008.18
2017-04-11T04:28:19.559Z,1008.27
2017-04-11T04:28:41.343Z,1008.46
2017-04-11T04:29:03.039Z,1008.56
2017-04-11T04:29:24.738Z,1008.42
2017-04-11T04:29:46.430Z,1008.32
2017-04-11T04:30:08.127Z,1008.76
2017-04-11T04:30:34.729Z,1008.46
2017-04-11T04:30:56.438Z,1008.43
2017-04-11T04:31:18.148Z,1008.35
2017-04-11T04:31:44.626Z,1008.45
2017-04-11T04:32:07.423Z,1008.52
2017-04-11T04:32:29.126Z,1008.34
2017-04-11T04:32:50.914Z,1008.43
2017-04-11T04:33:12.608Z,1008.46
2017-04-11T04:34:05.561Z,1008.17
2017-04-11T04:34:27.348Z,1008.28
2017-04-11T04:35:25.643Z,1008.35
2017-04-11T04:35:52.199Z,1008.36
2017-04-11T04:36:13.980Z,1008.39
2017-04-11T04:36:35.771Z,1008.51
2017-04-11T04:36:57.482Z,1008.57
2017-04-11T04:37:23.950Z,1008.85
2017-04-11T04:37:45.742Z,1008.45
2017-04-11T04:38:07.431Z,1008.29
2017-04-11T04:38:33.900Z,1008.30
2017-04-11T04:38:55.688Z,1008.25
2017-04-11T04:39:17.385Z,1008.34
2017-04-11T04:39:39.080Z,1008.42
2017-04-11T04:40:00.770Z,1008.57
2017-04-11T04:40:22.546Z,1008.36
2017-04-11T04:41:15.498Z,1008.60
2017-04-11T04:41:37.300Z,1008.36
2017-04-11T04:42:30.363Z,1008.70
2017-04-11T04:42:52.155Z,1008.49
2017-04-11T04:43:13.936Z,1008.73
2017-04-11T04:43:35.629Z,1008.35
2017-04-11T04:43:57.335Z,1008.44
2017-04-11T04:44:50.286Z,1008.65
2017-04-11T04:45:11.997Z,1008.77
2017-04-11T04:45:33.717Z,1008.65
2017-04-11T04:45:55.443Z,1008.62
2017-04-11T04:47:02.857Z,1008.04
2017-04-11T04:47:24.554Z,1008.35
2017-04-11T04:47:46.342Z,1008.40
2017-04-11T04:48:39.285Z,1008.71
2017-04-11T04:49:05.749Z,1008.74
2017-04-11T04:49:27.447Z,1008.50
2017-04-11T04:50:20.395Z,1008.31
2017-04-11T04:51:13.336Z,1008.66
2017-04-11T04:51:35.150Z,1008.21
2017-04-11T04:51:56.861Z,1008.36
2017-04-11T04:52:18.560Z,1008.60
2017-04-11T04:53:21.077Z,1008.24
2017-04-11T04:53:42.852Z,1008.28
2017-04-11T04:54:09.324Z,1008.43
2017-04-11T04:54:31.050Z,1008.57
2017-04-11T04:54:52.838Z,1008.47
2017-04-11T04:55:19.309Z,1008.49
2017-04-11T04:55:41.000Z,1008.59
2017-04-11T04:56:02.703Z,1008.64
2017-04-11T04:56:29.267Z,1008.78
2017-04-11T04:56:50.977Z,1008.58
2017-04-11T04:57:12.677Z,1008.75
2017-04-11T04:57:39.151Z,1008.42
2017-04-11T04:58:00.934Z,1008.49
2017-04-11T04:58:27.413Z,1008.48
2017-04-11T04:58:49.132Z,1008.64
2017-04-11T04:59:15.598Z,1008.98
2017-04-11T04:59:37.415Z,1008.83
2017-04-11T04:59:59.111Z,1008.70
2017-04-11T05:00:20.832Z,1008.89
2017-04-11T05:00:42.546Z,1009.03
2017-04-11T05:01:04.339Z,1008.50
2017-04-11T05:01:57.279Z,1008.54
2017-04-11T05:02:19.069Z,1008.84
2017-04-11T05:02:40.774Z,1008.79
2017-04-11T05:03:02.471Z,1008.69
2017-04-11T05:03:24.170Z,1008.71
2017-04-11T05:03:45.963Z,1008.61
2017-04-11T05:04:07.653Z,1008.63
2017-04-11T05:04:29.386Z,1008.72
2017-04-11T05:04:51.057Z,1008.40
2017-04-11T05:05:12.831Z,1008.38
2017-04-11T05:06:05.806Z,1008.35
2017-04-11T05:06:27.616Z,1008.62
2017-04-11T05:06:49.392Z,1008.60
2017-04-11T05:07:11.106Z,1008.31
2017-04-11T05:08:35.371Z,1008.53
2017-04-11T05:08:57.164Z,1008.40
2017-04-11T05:09:18.909Z,1008.43
2017-04-11T05:09:40.677Z,1008.56
2017-04-11T05:10:02.374Z,1008.84
2017-04-11T05:10:28.859Z,1008.69
2017-04-11T05:10:50.691Z,1008.58
2017-04-11T05:11:48.999Z,1008.59
2017-04-11T05:12:10.801Z,1008.94
2017-04-11T05:12:37.281Z,1008.86
2017-04-11T05:12:58.975Z,1008.86
2017-04-11T05:13:20.683Z,1008.49
2017-04-11T05:13:47.300Z,1008.65
2017-04-11T05:14:08.942Z,1008.50
2017-04-11T05:14:30.641Z,1008.42
2017-04-11T05:14:52.340Z,1008.70
2017-04-11T05:15:14.118Z,1008.49
2017-04-11T05:15:35.803Z,1008.69
2017-04-11T05:15:57.540Z,1008.73
2017-04-11T05:16:19.274Z,1008.87
2017-04-11T05:16:41.083Z,1008.54
2017-04-11T05:17:02.791Z,1008.70
2017-04-11T05:17:24.481Z,1008.73
2017-04-11T05:17:46.182Z,1008.72
2017-04-11T05:18:07.988Z,1008.74
2017-04-11T05:19:06.296Z,1008.77
2017-04-11T05:19:28.166Z,1008.87
2017-04-11T05:19:54.652Z,1009.54
2017-04-11T05:20:16.344Z,1008.78
2017-04-11T05:20:38.040Z,1008.74
2017-04-11T05:20:59.829Z,1008.79
2017-04-11T05:21:21.532Z,1008.95
2017-04-11T05:21:43.233Z,1008.98
2017-04-11T05:22:09.704Z,1009.20
2017-04-11T05:22:31.482Z,1008.79
2017-04-11T05:22:53.197Z,1008.71
2017-04-11T05:23:19.681Z,1008.83
2017-04-11T05:23:41.457Z,1008.83
2017-04-11T05:24:07.958Z,1008.59
2017-04-11T05:24:29.630Z,1008.75
2017-04-11T05:25:01.012Z,1008.79
2017-04-11T05:25:22.646Z,1008.78
2017-04-11T05:26:15.678Z,1008.75
2017-04-11T05:26:42.170Z,1009.19
2017-04-11T05:27:03.864Z,1008.77
2017-04-11T05:27:25.565Z,1008.99
2017-04-11T05:27:47.357Z,1009.39
2017-04-11T05:28:09.074Z,1009.15
2017-04-11T05:28:30.786Z,1008.82
2017-04-11T05:29:23.829Z,1008.94
2017-04-11T05:29:45.544Z,1009.03
2017-04-11T05:30:12.036Z,1009.11
2017-04-11T05:30:33.801Z,1008.82
2017-04-11T05:30:55.520Z,1009.21
2017-04-11T05:31:22.017Z,1009.28
2017-04-11T05:31:43.792Z,1009.06
2017-04-11T05:32:05.498Z,1009.23
2017-04-11T05:32:58.547Z,1009.24
2017-04-11T05:33:20.259Z,1009.07
2017-04-11T05:33:46.742Z,1009.00
2017-04-11T05:34:08.514Z,1009.27
2017-04-11T05:34:35.012Z,1009.42
2017-04-11T05:34:56.702Z,1008.88
2017-04-11T05:35:23.310Z,1008.93
2017-04-11T05:35:44.937Z,1008.85
2017-04-11T05:36:11.430Z,1009.00
2017-04-11T05:36:33.102Z,1009.15
2017-04-11T05:36:59.712Z,1009.58
2017-04-11T05:37:21.343Z,1009.52
2017-04-11T05:38:23.875Z,1009.12
2017-04-11T05:38:45.758Z,1009.10
2017-04-11T05:39:07.604Z,1009.06
2017-04-11T05:39:29.392Z,1009.06
2017-04-11T05:39:51.181Z,1009.24
2017-04-11T05:40:13.076Z,1009.33
2017-04-11T05:40:34.904Z,1009.28
2017-04-11T05:40:56.966Z,1009.22